Time;durP1;ratioP1;P1;durP2;ratioP2;P2;SDS_P1;SDS_P2;PMS_P1;PMS_P2;Temp;Humidity;BMP_temperature;BMP_pressure;BME280_temperature;BME280_humidity;BME280_pressure;Samples;Min_cycle;Max_cycle;Signal;HPM_P1;HPM_P2
2023/01/01 00:03:22;;;;;;;;;;;;;;;19.78;42.96;96018.34;10395942;28;2893;-53
2023/01/01 00:08:22;;;;;;;;;;;;;;;19.79;43.19;96034.91;10395402;28;4480;-50
2023/01/01 00:13:22;;;;;;;;;;;;;;;19.79;43.65;96054.13;10396757;28;2867;-50
2023/01/01 00:18:22;;;;;;;;;;;;;;;19.81;43.94;96073.06;10393353;28;3210;-51
2023/01/01 00:23:23;;;;;;;;;;;;;;;19.81;44.17;96067.81;10392652;28;2884;-47
2023/01/01 00:28:23;;;;;;;;;;;;;;;19.77;44.46;96068.56;10394554;28;2906;-48
2023/01/01 00:33:23;;;;;;;;;;;;;;;19.75;44.08;96074.09;10396510;28;2877;-51
2023/01/01 00:38:23;;;;;;;;;;;;;;;19.76;44.56;96075.69;10388991;28;3170;-48
2023/01/01 00:43:24;;;;;;;;;;;;;;;19.74;44.26;96074.38;10390006;28;2836;-48
2023/01/01 00:48:24;;;;;;;;;;;;;;;19.69;44.32;96079.59;10386831;28;2948;-49
2023/01/01 00:53:24;;;;;;;;;;;;;;;19.70;44.34;96084.59;10393668;28;2832;-50
2023/01/01 00:58:24;;;;;;;;;;;;;;;19.69;44.11;96088.28;10392160;28;2915;-50
2023/01/01 01:03:27;;;;;;;;;;;;;;;19.65;44.36;96089.06;10398977;28;2886;-47
2023/01/01 01:08:28;;;;;;;;;;;;;;;19.65;44.30;96089.06;10392641;28;4583;-50
2023/01/01 01:13:29;;;;;;;;;;;;;;;19.63;44.35;96091.97;10396025;28;2930;-50
2023/01/01 01:18:29;;;;;;;;;;;;;;;19.61;44.46;96104.59;10386631;28;2887;-51
2023/01/01 01:23:29;;;;;;;;;;;;;;;19.61;44.10;96107.22;10389770;28;2843;-49
2023/01/01 01:28:29;;;;;;;;;;;;;;;19.58;44.44;96114.84;10397695;28;2815;-51
2023/01/01 01:33:30;;;;;;;;;;;;;;;19.58;44.21;96105.09;10388787;28;2831;-49
2023/01/01 01:38:30;;;;;;;;;;;;;;;19.58;44.20;96110.34;10392251;28;3081;-53
2023/01/01 01:43:33;;;;;;;;;;;;;;;19.58;44.09;96128.75;10409229;28;2839;-50
2023/01/01 01:48:36;;;;;;;;;;;;;;;19.55;44.22;96116.13;10398419;28;2878;-49
2023/01/01 01:53:37;;;;;;;;;;;;;;;19.55;43.79;96104.81;10393023;28;2898;-49
2023/01/01 01:58:37;;;;;;;;;;;;;;;19.50;43.95;96102.97;10408986;28;2924;-49
2023/01/01 02:03:42;;;;;;;;;;;;;;;19.49;44.06;96106.66;10406969;28;2801;-49
2023/01/01 02:08:42;;;;;;;;;;;;;;;19.51;44.11;96098.50;10382889;28;4459;-52
2023/01/01 02:13:42;;;;;;;;;;;;;;;19.50;44.14;96113.47;10392282;28;2880;-50
2023/01/01 02:19:09;;;;;;;;;;;;;;;19.47;43.94;96100.84;10398110;28;3232;-50
2023/01/01 02:24:28;;;;;;;;;;;;;;;19.41;44.21;96107.91;10385647;28;2791;-47
2023/01/01 02:29:31;;;;;;;;;;;;;;;19.42;44.16;96106.88;10393506;28;2986;-47
2023/01/01 02:34:34;;;;;;;;;;;;;;;19.42;44.01;96100.81;10387285;28;2942;-48
2023/01/01 02:39:34;;;;;;;;;;;;;;;19.38;44.14;96087.41;10387766;28;2925;-51
2023/01/01 02:44:35;;;;;;;;;;;;;;;19.38;44.13;96081.34;10389760;28;2958;-47
2023/01/01 02:49:37;;;;;;;;;;;;;;;19.38;43.96;96090.03;10389380;28;2902;-47
2023/01/01 02:54:58;;;;;;;;;;;;;;;19.35;44.22;96092.41;10397068;28;2776;-49
2023/01/01 03:00:27;;;;;;;;;;;;;;;19.37;43.85;96085.81;10394406;28;2824;-52
2023/01/01 03:05:29;;;;;;;;;;;;;;;19.34;44.12;96093.44;10400884;28;4453;-47
2023/01/01 03:10:49;;;;;;;;;;;;;;;19.30;44.23;96098.41;10388933;28;3015;-50
2023/01/01 03:15:58;;;;;;;;;;;;;;;19.30;44.16;96100.22;10398995;28;2898;-52
2023/01/01 03:20:58;;;;;;;;;;;;;;;19.27;44.00;96096.25;10405390;28;2973;-51
2023/01/01 03:25:59;;;;;;;;;;;;;;;19.26;44.03;96101.78;10395739;28;2998;-51
2023/01/01 03:30:59;;;;;;;;;;;;;;;19.26;44.05;96101.78;10417089;28;2887;-48
2023/01/01 03:35:59;;;;;;;;;;;;;;;19.24;44.01;96109.94;10411894;28;2874;-50
2023/01/01 03:41:03;;;;;;;;;;;;;;;19.26;44.24;96115.72;10402375;28;2874;-51
2023/01/01 03:46:03;;;;;;;;;;;;;;;19.22;43.88;96119.13;10401661;28;2936;-48
2023/01/01 03:51:08;;;;;;;;;;;;;;;19.22;44.06;96125.16;10414556;28;2872;-49
2023/01/01 03:56:18;;;;;;;;;;;;;;;19.20;44.08;96134.34;10394072;28;2875;-47
2023/01/01 04:01:26;;;;;;;;;;;;;;;19.21;44.12;96138.53;10412153;28;2820;-48
2023/01/01 04:06:26;;;;;;;;;;;;;;;19.18;43.92;96134.63;10387530;28;4436;-50
2023/01/01 04:16:48;;;;;;;;;;;;;;;19.15;43.64;96129.84;10388240;28;2860;-50
2023/01/01 04:21:48;;;;;;;;;;;;;;;19.15;43.81;96127.22;10393366;28;2942;-51
2023/01/01 04:26:49;;;;;;;;;;;;;;;19.13;43.92;96128.50;10393502;28;2944;-48
2023/01/01 04:31:49;;;;;;;;;;;;;;;19.12;43.54;96135.63;10391848;28;3154;-49
2023/01/01 04:36:49;;;;;;;;;;;;;;;19.13;43.75;96131.16;10391507;28;2975;-52
2023/01/01 04:41:49;;;;;;;;;;;;;;;19.11;43.62;96138.50;10392626;28;2879;-50
2023/01/01 04:46:50;;;;;;;;;;;;;;;19.10;43.77;96148.19;10394285;28;2886;-51
2023/01/01 04:51:50;;;;;;;;;;;;;;;19.10;43.65;96142.94;10392165;28;2918;-47
2023/01/01 04:56:50;;;;;;;;;;;;;;;19.07;43.43;96140.84;10394199;28;2975;-48
2023/01/01 05:01:51;;;;;;;;;;;;;;;19.07;43.55;96140.03;10395433;28;2847;-49
2023/01/01 05:06:51;;;;;;;;;;;;;;;19.07;42.88;96145.31;10397703;28;4515;-49
2023/01/01 05:11:52;;;;;;;;;;;;;;;19.06;43.16;96154.25;10396700;28;2895;-49
2023/01/01 05:16:52;;;;;;;;;;;;;;;19.04;42.90;96157.09;10381157;28;2875;-50
2023/01/01 05:21:53;;;;;;;;;;;;;;;19.04;42.69;96156.34;10395705;28;2775;-51
2023/01/01 05:26:53;;;;;;;;;;;;;;;19.01;42.71;96157.63;10408271;28;2920;-52
2023/01/01 05:31:54;;;;;;;;;;;;;;;19.03;42.95;96160.78;10397478;28;2946;-52
2023/01/01 05:36:55;;;;;;;;;;;;;;;19.00;42.42;96161.28;10398540;28;2983;-50
2023/01/01 05:41:55;;;;;;;;;;;;;;;19.00;42.26;96160.50;10392493;28;2894;-51
2023/01/01 05:46:55;;;;;;;;;;;;;;;18.98;42.13;96166.00;10395423;28;2925;-52
2023/01/01 05:51:56;;;;;;;;;;;;;;;18.98;42.28;96173.88;10392323;28;3184;-52
2023/01/01 05:56:56;;;;;;;;;;;;;;;18.98;42.23;96181.00;10393556;28;2713;-52
2023/01/01 06:01:56;;;;;;;;;;;;;;;18.96;41.80;96189.09;10387625;28;2905;-50
2023/01/01 06:06:56;;;;;;;;;;;;;;;18.95;42.11;96190.16;10390017;28;4280;-53
2023/01/01 06:11:57;;;;;;;;;;;;;;;18.96;42.92;96186.47;10388770;28;2985;-51
2023/01/01 06:16:57;;;;;;;;;;;;;;;18.97;43.08;96201.22;10388678;28;2817;-53
2023/01/01 06:21:57;;;;;;;;;;;;;;;19.01;42.82;96198.88;10388536;28;2885;-50
2023/01/01 06:26:57;;;;;;;;;;;;;;;19.05;42.39;96200.75;10392214;28;2839;-49
2023/01/01 06:31:58;;;;;;;;;;;;;;;19.05;41.23;96197.31;10385643;28;2965;-52
2023/01/01 06:36:58;;;;;;;;;;;;;;;19.06;40.69;96197.06;10382235;28;2969;-50
2023/01/01 06:41:58;;;;;;;;;;;;;;;19.07;39.93;96214.41;10392549;28;2835;-51
2023/01/01 06:46:58;;;;;;;;;;;;;;;19.08;39.69;96205.47;10391560;28;3040;-52
2023/01/01 06:51:59;;;;;;;;;;;;;;;19.13;39.17;96199.47;10388075;28;2968;-51
2023/01/01 06:56:59;;;;;;;;;;;;;;;19.17;39.00;96225.00;10392605;28;2852;-52
2023/01/01 07:01:59;;;;;;;;;;;;;;;19.22;38.91;96238.19;10392314;28;2840;-49
2023/01/01 07:07:00;;;;;;;;;;;;;;;19.24;38.88;96222.94;10389010;28;4420;-52
2023/01/01 07:12:00;;;;;;;;;;;;;;;19.30;39.00;96244.78;10384387;28;3070;-53
2023/01/01 07:17:00;;;;;;;;;;;;;;;19.33;38.64;96250.34;10391508;28;2867;-48
2023/01/01 07:22:00;;;;;;;;;;;;;;;19.35;38.85;96248.25;10379363;28;2828;-51
2023/01/01 07:27:01;;;;;;;;;;;;;;;19.38;38.68;96260.13;10406970;28;2856;-51
2023/01/01 07:32:02;;;;;;;;;;;;;;;19.40;38.59;96264.09;10380246;28;3101;-53
2023/01/01 07:37:02;;;;;;;;;;;;;;;19.44;38.71;96253.84;10385284;28;2961;-50
2023/01/01 07:42:03;;;;;;;;;;;;;;;19.45;38.65;96256.22;10397707;28;2884;-50
2023/01/01 07:47:03;;;;;;;;;;;;;;;19.50;38.25;96271.22;10398340;28;2853;-55
2023/01/01 07:52:04;;;;;;;;;;;;;;;19.52;38.47;96271.78;10390391;28;3196;-50
2023/01/01 07:57:04;;;;;;;;;;;;;;;19.57;38.26;96276.28;10398025;28;3011;-50
2023/01/01 08:02:04;;;;;;;;;;;;;;;19.59;38.29;96289.97;10398517;28;3014;-49
2023/01/01 08:07:04;;;;;;;;;;;;;;;19.61;37.92;96296.56;10388612;28;4421;-48
2023/01/01 08:12:05;;;;;;;;;;;;;;;19.64;38.05;96284.75;10406759;28;3033;-50
2023/01/01 08:17:05;;;;;;;;;;;;;;;19.70;38.03;96291.63;10393858;28;2837;-49
2023/01/01 08:22:05;;;;;;;;;;;;;;;19.72;38.14;96292.16;10399263;28;3030;-49
2023/01/01 08:27:06;;;;;;;;;;;;;;;19.80;38.87;96287.19;10394949;28;2890;-52
2023/01/01 08:32:06;;;;;;;;;;;;;;;19.82;38.05;96279.03;10399475;28;3023;-48
2023/01/01 08:37:09;;;;;;;;;;;;;;;19.83;38.13;96278.78;10401813;28;2931;-48
2023/01/01 08:42:09;;;;;;;;;;;;;;;19.86;37.93;96291.44;10409482;28;2847;-48
2023/01/01 08:47:19;;;;;;;;;;;;;;;19.90;38.01;96304.88;10392381;28;2877;-47
2023/01/01 08:52:19;;;;;;;;;;;;;;;19.92;38.40;96308.84;10393815;28;2889;-51
2023/01/01 08:57:19;;;;;;;;;;;;;;;19.96;37.93;96309.91;10400908;28;2870;-50
2023/01/01 09:02:19;;;;;;;;;;;;;;;20.00;37.71;96315.44;10399901;28;2924;-47
2023/01/01 09:07:20;;;;;;;;;;;;;;;20.06;39.60;96314.41;10392168;28;4525;-47
2023/01/01 09:12:20;;;;;;;;;;;;;;;20.09;37.91;96308.66;10394490;28;2863;-48
2023/01/01 09:17:20;;;;;;;;;;;;;;;20.11;38.10;96325.75;10397214;28;2896;-50
2023/01/01 09:22:20;;;;;;;;;;;;;;;20.13;37.99;96328.16;10393443;28;2906;-51
2023/01/01 09:27:21;;;;;;;;;;;;;;;20.18;38.31;96339.47;10394152;28;2952;-48
2023/01/01 09:32:22;;;;;;;;;;;;;;;20.30;39.70;96336.66;10393412;28;3309;-47
2023/01/01 09:37:23;;;;;;;;;;;;;;;20.32;39.59;96339.81;10396560;28;3046;-48
2023/01/01 09:42:43;;;;;;;;;;;;;;;20.40;40.79;96341.97;10393562;28;2912;-50
2023/01/01 09:47:44;;;;;;;;;;;;;;;20.45;41.43;96341.97;10393300;28;2848;-50
2023/01/01 09:52:47;;;;;;;;;;;;;;;20.52;41.94;96332.00;10395104;28;2888;-47
2023/01/01 09:57:47;;;;;;;;;;;;;;;20.53;42.51;96322.25;10394459;28;2884;-47
2023/01/01 10:03:02;;;;;;;;;;;;;;;20.55;42.58;96323.59;10377518;28;2867;-51
2023/01/01 10:08:16;;;;;;;;;;;;;;;20.58;42.57;96319.63;10393118;28;7911;-47
2023/01/01 10:13:27;;;;;;;;;;;;;;;20.54;42.92;96311.47;10404867;28;7941;-48
2023/01/01 10:18:29;;;;;;;;;;;;;;;20.54;42.65;96308.03;10404817;28;7954;-50
2023/01/01 10:23:39;;;;;;;;;;;;;;;20.51;43.06;96306.72;10391496;28;8063;-49
2023/01/01 10:28:49;;;;;;;;;;;;;;;20.49;42.92;96300.13;10389038;28;8260;-51
2023/01/01 10:33:49;;;;;;;;;;;;;;;20.49;42.94;96303.53;10392995;28;7862;-49
2023/01/01 10:38:49;;;;;;;;;;;;;;;20.46;42.88;96301.44;10394271;28;2919;-48
2023/01/01 10:43:50;;;;;;;;;;;;;;;20.44;43.15;96292.22;10388506;28;2899;-52
2023/01/01 10:49:03;;;;;;;;;;;;;;;20.29;40.36;96285.06;10385273;28;2864;-49
2023/01/01 10:54:04;;;;;;;;;;;;;;;20.24;40.75;96287.66;10390779;28;7724;-51
2023/01/01 10:59:07;;;;;;;;;;;;;;;20.18;39.92;96286.03;10413750;28;2852;-49
2023/01/01 11:04:07;;;;;;;;;;;;;;;20.12;38.78;96284.44;10393623;28;2944;-51
2023/01/01 11:09:17;;;;;;;;;;;;;;;20.17;40.14;96281.84;10393536;28;2899;-50
2023/01/01 11:14:18;;;;;;;;;;;;;;;20.22;40.11;96279.25;10392367;28;2911;-51
2023/01/01 11:19:23;;;;;;;;;;;;;;;20.35;39.78;96273.50;10402482;28;3024;-49
2023/01/01 11:24:27;;;;;;;;;;;;;;;20.25;40.12;96252.41;10398658;28;8344;-51
2023/01/01 11:29:27;;;;;;;;;;;;;;;20.25;40.24;96247.94;10398313;28;2890;-51
2023/01/01 11:34:29;;;;;;;;;;;;;;;20.23;40.46;96244.78;10398092;28;2935;-47
2023/01/01 11:39:30;;;;;;;;;;;;;;;20.24;40.88;96240.28;10397085;28;2987;-50
2023/01/01 11:44:38;;;;;;;;;;;;;;;20.24;40.86;96237.66;10399396;28;2962;-49
2023/01/01 11:49:39;;;;;;;;;;;;;;;20.23;40.96;96230.81;10396127;28;2925;-50
2023/01/01 11:54:39;;;;;;;;;;;;;;;20.25;41.02;96220.81;10410092;28;2825;-49
2023/01/01 11:59:44;;;;;;;;;;;;;;;20.21;41.34;96215.28;10408154;28;3123;-47
2023/01/01 12:04:49;;;;;;;;;;;;;;;20.25;41.70;96211.09;10401095;28;3182;-48
2023/01/01 12:09:51;;;;;;;;;;;;;;;20.25;41.74;96207.66;10417033;28;3111;-50
2023/01/01 12:14:54;;;;;;;;;;;;;;;20.25;41.82;96207.66;10403951;28;3182;-51
2023/01/01 12:20:13;;;;;;;;;;;;;;;20.25;42.18;96213.72;10400790;28;3159;-50
2023/01/01 12:25:15;;;;;;;;;;;;;;;20.25;42.61;96215.56;10397320;28;5231;-48
2023/01/01 12:30:22;;;;;;;;;;;;;;;20.27;42.38;96214.25;10390798;28;3162;-51
2023/01/01 12:35:59;;;;;;;;;;;;;;;20.25;42.64;96194.50;10386737;28;3224;-48
2023/01/01 12:41:17;;;;;;;;;;;;;;;20.28;42.78;96191.31;10370803;28;3546;-50
2023/01/01 12:46:21;;;;;;;;;;;;;;;20.30;42.65;96193.72;10396029;28;3119;-49
2023/01/01 12:51:25;;;;;;;;;;;;;;;20.23;42.99;96186.06;10397284;28;3162;-52
2023/01/01 12:56:33;;;;;;;;;;;;;;;20.21;42.87;96188.97;10380391;28;3277;-50
2023/01/01 13:01:34;;;;;;;;;;;;;;;20.21;42.91;96185.53;10370227;28;3316;-50
2023/01/01 13:06:50;;;;;;;;;;;;;;;20.23;43.00;96201.84;10380052;28;3038;-52
2023/01/01 13:11:57;;;;;;;;;;;;;;;20.21;43.35;96209.22;10389146;28;3173;-47
2023/01/01 13:16:58;;;;;;;;;;;;;;;20.24;43.23;96195.53;10407249;28;3222;-47
2023/01/01 13:21:58;;;;;;;;;;;;;;;20.24;43.58;96203.44;10394924;28;3431;-49
2023/01/01 13:26:58;;;;;;;;;;;;;;;20.21;43.67;96203.97;10407842;28;3119;-49
2023/01/01 13:32:00;;;;;;;;;;;;;;;20.18;44.18;96199.16;10396407;28;3183;-49
2023/01/01 13:37:23;;;;;;;;;;;;;;;20.17;44.34;96202.88;10402836;28;3300;-49
2023/01/01 13:42:36;;;;;;;;;;;;;;;20.18;44.41;96193.91;10391828;28;3202;-54
2023/01/01 13:47:53;;;;;;;;;;;;;;;20.18;44.29;96193.91;10376140;28;3165;-53
2023/01/01 13:53:01;;;;;;;;;;;;;;;20.18;44.08;96205.22;10395969;28;3294;-49
2023/01/01 13:58:20;;;;;;;;;;;;;;;20.13;44.09;96207.06;10393532;28;3114;-50
2023/01/01 14:03:20;;;;;;;;;;;;;;;20.12;43.95;96201.00;10392817;28;3150;-50
2023/01/01 14:08:30;;;;;;;;;;;;;;;20.08;44.21;96196.53;10390022;28;3126;-48
2023/01/01 14:13:38;;;;;;;;;;;;;;;20.03;44.39;96207.81;10395434;28;3425;-49
2023/01/01 14:18:41;;;;;;;;;;;;;;;20.08;43.87;96196.53;10396785;28;3102;-49
2023/01/01 14:23:45;;;;;;;;;;;;;;;20.07;43.55;96192.31;10390487;28;3233;-50
2023/01/01 14:28:45;;;;;;;;;;;;;;;20.08;43.83;96193.88;10388627;28;3165;-50
2023/01/01 14:33:46;;;;;;;;;;;;;;;20.01;44.75;96196.00;10401976;28;3353;-50
2023/01/01 14:38:47;;;;;;;;;;;;;;;20.01;45.05;96203.88;10381876;28;3167;-48
2023/01/01 14:43:48;;;;;;;;;;;;;;;20.06;45.06;96201.25;10385468;28;3232;-50
2023/01/01 14:48:49;;;;;;;;;;;;;;;20.03;45.19;96192.03;10380983;28;3176;-49
2023/01/01 14:53:49;;;;;;;;;;;;;;;20.01;45.31;96196.00;10395122;28;3150;-49
2023/01/01 14:58:49;;;;;;;;;;;;;;;20.00;45.47;96203.09;10400767;28;3149;-49
2023/01/01 15:04:00;;;;;;;;;;;;;;;19.98;45.67;96207.81;10394826;28;3146;-49
2023/01/01 15:09:00;;;;;;;;;;;;;;;19.96;45.57;96212.53;10399049;28;3138;-48
2023/01/01 15:14:00;;;;;;;;;;;;;;;19.94;45.40;96213.84;10407602;28;3496;-53
2023/01/01 15:19:01;;;;;;;;;;;;;;;19.91;45.52;96206.47;10395826;28;3129;-50
2023/01/01 15:24:01;;;;;;;;;;;;;;;19.91;45.57;96203.81;10391192;28;3161;-48
2023/01/01 15:29:01;;;;;;;;;;;;;;;19.89;45.58;96200.66;10393815;28;3161;-52
2023/01/01 15:34:02;;;;;;;;;;;;;;;19.88;45.54;96201.72;10400099;28;3118;-49
2023/01/01 15:39:02;;;;;;;;;;;;;;;20.00;45.38;96208.34;10396474;28;3133;-52
2023/01/01 15:44:18;;;;;;;;;;;;;;;20.12;45.27;96205.47;10399506;28;3129;-54
2023/01/01 15:49:22;;;;;;;;;;;;;;;20.29;44.66;96213.97;10383664;28;3215;-52
2023/01/01 15:54:23;;;;;;;;;;;;;;;20.39;44.19;96200.03;10393902;28;3134;-51
2023/01/01 15:59:32;;;;;;;;;;;;;;;20.52;43.23;96200.34;10399359;28;3102;-52
2023/01/01 16:04:33;;;;;;;;;;;;;;;20.65;44.02;96205.06;10395690;28;3082;-48
2023/01/01 16:09:34;;;;;;;;;;;;;;;20.82;42.98;96205.59;10401124;28;3147;-51
2023/01/01 16:14:35;;;;;;;;;;;;;;;20.86;41.08;96206.66;10419776;28;3264;-54
2023/01/01 16:19:35;;;;;;;;;;;;;;;20.92;38.98;96208.22;10405733;28;3118;-50
2023/01/01 16:24:35;;;;;;;;;;;;;;;20.97;39.89;96195.06;10401680;28;3133;-48
2023/01/01 16:29:36;;;;;;;;;;;;;;;21.06;39.49;96193.50;10409104;28;3557;-54
2023/01/01 16:34:36;;;;;;;;;;;;;;;21.16;39.72;96186.63;10407006;28;3240;-52
2023/01/01 16:39:36;;;;;;;;;;;;;;;21.13;39.01;96189.78;10397704;28;3204;-49
2023/01/01 16:44:39;;;;;;;;;;;;;;;21.12;37.53;96185.59;10408525;28;3244;-50
2023/01/01 16:49:39;;;;;;;;;;;;;;;21.16;38.43;96176.88;10406229;28;3432;-49
2023/01/01 16:54:40;;;;;;;;;;;;;;;21.16;37.92;96170.81;10398402;28;3155;-51
2023/01/01 16:59:40;;;;;;;;;;;;;;;21.18;37.90;96180.03;10405022;28;3214;-52
2023/01/01 17:04:40;;;;;;;;;;;;;;;21.21;38.07;96176.06;10407794;28;3171;-50
2023/01/01 17:09:41;;;;;;;;;;;;;;;21.25;37.80;96182.38;10399227;28;3174;-50
2023/01/01 17:14:41;;;;;;;;;;;;;;;21.28;38.03;96182.66;10406042;28;3187;-52
2023/01/01 17:19:41;;;;;;;;;;;;;;;21.32;38.19;96178.44;10396437;28;3145;-48
2023/01/01 17:24:42;;;;;;;;;;;;;;;21.38;38.33;96176.56;10399227;28;3158;-51
2023/01/01 17:29:42;;;;;;;;;;;;;;;21.41;38.64;96173.41;10398940;28;4109;-49
2023/01/01 17:34:42;;;;;;;;;;;;;;;21.38;37.90;96172.06;10392501;28;3151;-51
2023/01/01 17:39:43;;;;;;;;;;;;;;;21.46;39.50;96174.16;10397971;28;3214;-50
2023/01/01 17:44:43;;;;;;;;;;;;;;;21.49;39.21;96170.19;10390814;28;3158;-52
2023/01/01 17:49:43;;;;;;;;;;;;;;;21.50;39.11;96164.66;10401341;28;3384;-50
2023/01/01 17:54:43;;;;;;;;;;;;;;;21.51;39.40;96157.53;10395054;28;3187;-51
2023/01/01 17:59:44;;;;;;;;;;;;;;;21.50;39.00;96164.66;10397440;28;3206;-53
2023/01/01 18:04:44;;;;;;;;;;;;;;;21.54;38.97;96164.91;10398795;28;3105;-54
2023/01/01 18:09:44;;;;;;;;;;;;;;;21.56;39.52;96165.41;10396303;28;3173;-53
2023/01/01 18:14:44;;;;;;;;;;;;;;;21.59;39.85;96157.78;10404476;28;3126;-52
2023/01/01 18:19:45;;;;;;;;;;;;;;;21.57;38.95;96151.97;10395963;28;3020;-49
2023/01/01 18:24:45;;;;;;;;;;;;;;;21.64;39.65;96156.94;10391967;28;3226;-51
2023/01/01 18:29:46;;;;;;;;;;;;;;;21.69;40.17;96154.28;10394620;28;3470;-51
2023/01/01 18:34:47;;;;;;;;;;;;;;;21.63;39.19;96144.81;10387082;28;3198;-49
2023/01/01 18:39:47;;;;;;;;;;;;;;;21.68;40.71;96147.44;10389603;28;3135;-50
2023/01/01 18:44:48;;;;;;;;;;;;;;;21.59;39.20;96141.94;10394591;28;3205;-53
2023/01/01 18:49:49;;;;;;;;;;;;;;;21.59;38.90;96141.16;10402441;28;3546;-54
2023/01/01 18:55:07;;;;;;;;;;;;;;;21.59;39.18;96141.16;10401231;28;3330;-54
2023/01/01 19:00:29;;;;;;;;;;;;;;;21.55;38.59;96137.47;10395291;28;3218;-53
2023/01/01 19:05:30;;;;;;;;;;;;;;;21.55;38.85;96140.13;10401450;28;3470;-53
2023/01/01 19:10:52;;;;;;;;;;;;;;;21.51;39.11;96136.44;10392943;28;3242;-51
2023/01/01 19:15:58;;;;;;;;;;;;;;;21.52;38.95;96122.97;10399022;28;3345;-54
2023/01/01 19:21:10;;;;;;;;;;;;;;;21.50;38.85;96126.94;10396203;28;3209;-49
2023/01/01 19:26:13;;;;;;;;;;;;;;;21.51;39.79;96120.59;10395061;28;3153;-50
2023/01/01 19:31:13;;;;;;;;;;;;;;;21.49;39.63;96117.44;10396124;28;3410;-53
2023/01/01 19:36:13;;;;;;;;;;;;;;;21.49;39.96;96112.19;10401598;28;3245;-47
2023/01/01 19:41:14;;;;;;;;;;;;;;;21.50;39.62;96111.09;10408073;28;3300;-52
2023/01/01 19:46:14;;;;;;;;;;;;;;;21.45;39.27;96103.22;10399833;28;3111;-54
2023/01/01 19:51:14;;;;;;;;;;;;;;;21.45;40.10;96097.97;10398836;28;3140;-52
2023/01/01 19:56:27;;;;;;;;;;;;;;;21.39;39.45;96091.13;10408807;28;3201;-52
2023/01/01 20:01:27;;;;;;;;;;;;;;;21.38;39.74;96086.91;10398962;28;3436;-54
2023/01/01 20:06:29;;;;;;;;;;;;;;;21.37;39.74;96080.06;10399350;28;3151;-54
2023/01/01 20:11:30;;;;;;;;;;;;;;;21.19;39.94;96070.09;10407556;28;3101;-55
2023/01/01 20:16:32;;;;;;;;;;;;;;;21.10;39.99;96075.16;10410735;28;3333;-48
2023/01/01 20:26:51;;;;;;;;;;;;;;;21.05;41.01;96075.16;10404638;28;3345;-52
2023/01/01 20:31:52;;;;;;;;;;;;;;;20.98;40.88;96070.13;10407273;28;3105;-53
2023/01/01 20:42:11;;;;;;;;;;;;;;;20.78;41.44;96066.75;10400919;28;3955;-53
2023/01/01 20:47:12;;;;;;;;;;;;;;;20.79;40.85;96066.47;10406558;28;3221;-53
2023/01/01 20:52:13;;;;;;;;;;;;;;;20.78;40.34;96061.47;10407086;28;3134;-53
2023/01/01 20:57:13;;;;;;;;;;;;;;;20.72;40.29;96058.09;10399012;28;3153;-50
2023/01/01 21:02:13;;;;;;;;;;;;;;;20.73;41.04;96058.88;10396512;28;3162;-50
2023/01/01 21:07:14;;;;;;;;;;;;;;;20.70;40.09;96054.13;10399378;28;3151;-54
2023/01/01 21:12:14;;;;;;;;;;;;;;;20.65;39.86;96057.56;10398430;28;3229;-54
2023/01/01 21:17:19;;;;;;;;;;;;;;;20.62;39.03;96059.94;10395552;28;3228;-54
2023/01/01 21:22:20;;;;;;;;;;;;;;;20.59;39.86;96071.78;10391748;28;3272;-52
2023/01/01 21:27:23;;;;;;;;;;;;;;;20.56;38.99;96074.97;10397690;28;3079;-51
2023/01/01 21:32:24;;;;;;;;;;;;;;;20.57;40.20;96081.00;10405571;28;3145;-52
2023/01/01 21:37:56;;;;;;;;;;;;;;;20.56;40.20;96092.59;10395009;28;3197;-53
2023/01/01 21:43:07;;;;;;;;;;;;;;;20.56;41.11;96080.25;10394369;28;3185;-53
2023/01/01 21:48:10;;;;;;;;;;;;;;;20.55;40.94;96089.19;10397910;28;3174;-52
2023/01/01 21:53:13;;;;;;;;;;;;;;;20.54;41.96;96097.34;10395562;28;3189;-53
2023/01/01 22:03:32;;;;;;;;;;;;;;;20.55;42.74;96086.53;10392553;28;3130;-53
2023/01/01 22:08:32;;;;;;;;;;;;;;;20.53;42.97;96080.75;10393137;28;3169;-48
2023/01/01 22:13:33;;;;;;;;;;;;;;;20.53;42.97;96072.06;10390885;28;3226;-54
2023/01/01 22:18:33;;;;;;;;;;;;;;;20.53;42.72;96064.94;10397588;28;3130;-53
2023/01/01 22:23:34;;;;;;;;;;;;;;;20.50;42.75;96060.22;10382023;28;3158;-54
2023/01/01 22:28:41;;;;;;;;;;;;;;;20.48;42.97;96066.81;10371005;28;3110;-53
2023/01/01 22:33:44;;;;;;;;;;;;;;;20.43;43.12;96048.38;10374805;28;3260;-52
2023/01/01 22:38:45;;;;;;;;;;;;;;;20.39;42.60;96042.06;10394020;28;3196;-52
2023/01/01 22:43:46;;;;;;;;;;;;;;;20.36;42.83;96038.09;10388607;28;3288;-54
2023/01/01 22:48:46;;;;;;;;;;;;;;;20.36;42.67;96051.25;10389256;28;3206;-52
2023/01/01 22:53:47;;;;;;;;;;;;;;;20.33;43.02;96070.25;10392423;28;3581;-52
2023/01/01 22:58:47;;;;;;;;;;;;;;;20.32;42.66;96052.84;10390546;28;3201;-53
2023/01/01 23:03:47;;;;;;;;;;;;;;;20.30;42.76;96044.44;10393266;28;3138;-53
2023/01/01 23:08:48;;;;;;;;;;;;;;;20.28;43.07;96046.53;10382172;28;3261;-55
2023/01/01 23:19:07;;;;;;;;;;;;;;;20.23;42.81;96030.75;10418218;28;3142;-50
2023/01/01 23:24:08;;;;;;;;;;;;;;;20.22;42.80;96037.06;10390052;28;3185;-51
2023/01/01 23:29:08;;;;;;;;;;;;;;;20.21;42.52;96032.88;10399361;28;3161;-53
2023/01/01 23:34:09;;;;;;;;;;;;;;;20.21;42.74;96036.28;10395217;28;3244;-53
2023/01/01 23:39:09;;;;;;;;;;;;;;;20.20;42.68;96039.97;10392308;28;3269;-54
2023/01/01 23:44:09;;;;;;;;;;;;;;;20.16;42.71;96035.47;10411571;28;3265;-54
2023/01/01 23:49:10;;;;;;;;;;;;;;;20.18;42.64;96022.81;10391330;28;3182;-51
2023/01/01 23:54:10;;;;;;;;;;;;;;;20.10;42.74;96012.81;10409513;28;3774;-51
2023/01/01 23:59:10;;;;;;;;;;;;;;;20.05;42.48;96005.72;10396127;28;3143;-54
